Windom, KS (67491)

4:11 PM CST on February 01, 2015 (GMT -0600)
Boese | Change Station
CLOSE
Current Station
Personal Weather Station
Location: McPherson, KS
Elevation: 1506 ft
Nearby Weather Stations
Active Advisory: Wind Advisory Active Notice: Public Information Statement

Elev 1506 ft 38.38 °N, 97.66 °W | Updated 2 seconds ago

Overcast
Overcast
17.2 °F
Feels Like 7 °F
N
8.3
Wind Variable Wind from NW
Gusts 22.1 mph

Today
High -- | Low -- °F
--% Chance of Precip.
Yesterday
High -- | Low -- °F
Precip. -- in
7:37 AM 5:53 PM
Waxing Gibbous, 96% visible
Pressure 30.17 in
Visibility 6.0 miles
Clouds Overcast 2500 ft
Windchill 7 °F
Dew Point 12 °F
Humidity 78%
Rainfall 0.07 in
Snow Depth Not available.
UV 1 out of 12
Pollen .10 out of 12
Air Quality Not available.
Flu Activity Not available.
METAR KHUT 012052Z 34024G33KT 6SM -SN OVC025 M06/M12 A3015 RMK AO2 PK WND 34034/2038 SLP215 P0000 60000 T10561117 53017

More Conditions Fewer Conditions

Pressure 30.17 in
Visibility 6.0 miles
Clouds Overcast 2500 ft
Windchill 7 °F
Dew Point 12 °F
Humidity 78%
Rainfall 0.07 in
Snow Depth Not available.
UV 1 out of 12
Pollen .10 out of 12
Air Quality Not available.
Flu Activity Not available.
METAR KHUT 012052Z 34024G33KT 6SM -SN OVC025 M06/M12 A3015 RMK AO2 PK WND 34034/2038 SLP215 P0000 60000 T10561117 53017

More Conditions Fewer Conditions

10-Day Weather Forecast

Almanac

Astronomy

Feb. 01, 2015 Rise Set
Actual Time
Civil Twilight
Nautical Twilight
Astronomical Twilight
Moon
Length of Visible Light
Length of Day
Tomorrow will be .
, % of the Moon is Illuminated

Today's Extremes

State Highs State Lows

Community

WunderPhotos

Upload Photos

1,792,563 photos uploaded!

WunderBlogs® & News

Nearby

Air Quality

  Air Quality AQ Index Pollutant
Not available.

Snow Depth

Station Depth Elevation

Earthquake Activity

City Distance Mag. Time & Date
Minimum magnitude displayed is 2.5.

Coastal Water Temperatures

Place Temperature

Nearby Weather Stations